createdAt,value
2017-11-08T00:01:10.564Z,0
2017-11-08T00:02:32.735Z,0
2017-11-08T00:03:54.574Z,0
2017-11-08T00:05:16.752Z,0
2017-11-08T00:06:39.044Z,0
2017-11-08T00:08:00.908Z,0
2017-11-08T00:09:23.101Z,0
2017-11-08T00:10:45.257Z,0
2017-11-08T00:12:07.103Z,0
2017-11-08T00:13:29.266Z,0
2017-11-08T00:14:51.135Z,0
2017-11-08T00:16:13.311Z,0
2017-11-08T00:17:35.484Z,0
2017-11-08T00:18:57.824Z,0
2017-11-08T00:20:19.353Z,0
2017-11-08T00:21:41.192Z,0
2017-11-08T00:23:03.352Z,0
2017-11-08T00:24:25.864Z,0
2017-11-08T00:25:48.362Z,0
2017-11-08T00:27:10.563Z,0
2017-11-08T00:28:32.723Z,0
2017-11-08T00:29:54.599Z,0
2017-11-08T00:31:16.434Z,0
2017-11-08T00:32:38.604Z,0
2017-11-08T00:34:00.511Z,0
2017-11-08T00:35:23.036Z,0
2017-11-08T00:36:45.525Z,0
2017-11-08T00:38:07.686Z,0
2017-11-08T00:39:29.564Z,0
2017-11-08T00:40:51.754Z,0
2017-11-08T00:42:14.034Z,0
2017-11-08T00:43:36.214Z,0
2017-11-08T00:44:58.866Z,0
2017-11-08T00:46:21.389Z,0
2017-11-08T00:47:43.222Z,0
2017-11-08T00:49:04.772Z,0
2017-11-08T00:50:26.971Z,0
2017-11-08T00:51:49.592Z,0
2017-11-08T00:53:11.824Z,0
2017-11-08T00:54:34.314Z,0
2017-11-08T00:55:56.491Z,0
2017-11-08T00:57:18.710Z,0
2017-11-08T00:58:40.934Z,0
2017-11-08T01:00:02.791Z,0
2017-11-08T01:01:25.007Z,0
2017-11-08T01:02:47.183Z,0
2017-11-08T01:04:09.133Z,0
2017-11-08T01:05:30.845Z,0
2017-11-08T01:06:53.014Z,0
2017-11-08T01:08:14.540Z,0
2017-11-08T01:09:36.051Z,0
2017-11-08T01:10:57.878Z,0
2017-11-08T01:12:20.055Z,0
2017-11-08T01:13:42.210Z,0
2017-11-08T01:15:03.714Z,0
2017-11-08T01:16:26.240Z,0
2017-11-08T01:17:47.420Z,0
2017-11-08T01:19:08.934Z,0
2017-11-08T01:20:31.172Z,0
2017-11-08T01:21:53.002Z,0
2017-11-08T01:23:14.894Z,0
2017-11-08T01:24:37.408Z,0
2017-11-08T01:25:59.251Z,0
2017-11-08T01:27:21.454Z,0
2017-11-08T01:28:43.644Z,0
2017-11-08T01:30:05.509Z,0
2017-11-08T01:31:28.113Z,0
2017-11-08T01:32:50.622Z,0
2017-11-08T01:34:13.038Z,0
2017-11-08T01:35:34.554Z,0
2017-11-08T01:36:56.787Z,0
2017-11-08T01:38:19.095Z,0
2017-11-08T01:39:40.923Z,0
2017-11-08T01:41:03.100Z,0
2017-11-08T01:42:25.274Z,0
2017-11-08T01:43:47.784Z,0
2017-11-08T01:45:09.994Z,0
2017-11-08T01:46:31.175Z,0
2017-11-08T01:47:53.408Z,0
2017-11-08T01:49:15.287Z,0
2017-11-08T01:50:37.450Z,0
2017-11-08T01:51:59.611Z,0
2017-11-08T01:53:21.864Z,0
2017-11-08T01:54:43.760Z,0
2017-11-08T01:56:05.649Z,0
2017-11-08T01:57:27.538Z,0
2017-11-08T01:58:49.363Z,0
2017-11-08T02:00:11.534Z,0
2017-11-08T02:01:33.374Z,0
2017-11-08T02:02:55.625Z,0
2017-11-08T02:04:17.865Z,0
2017-11-08T02:05:40.024Z,0
2017-11-08T02:07:02.018Z,0
2017-11-08T02:08:23.192Z,0
2017-11-08T02:09:45.356Z,0
2017-11-08T02:11:07.536Z,0
2017-11-08T02:12:29.306Z,0
2017-11-08T02:13:51.161Z,0
2017-11-08T02:15:13.104Z,0
2017-11-08T02:16:34.586Z,0
2017-11-08T02:17:56.752Z,0
2017-11-08T02:19:18.958Z,0
2017-11-08T02:20:40.785Z,0
2017-11-08T02:22:02.459Z,0
2017-11-08T02:23:24.403Z,0
2017-11-08T02:24:45.977Z,0
2017-11-08T02:26:08.173Z,0
2017-11-08T02:27:30.045Z,0
2017-11-08T02:28:52.126Z,0
2017-11-08T02:30:14.428Z,0
2017-11-08T02:31:35.937Z,0
2017-11-08T02:32:57.793Z,0
2017-11-08T02:34:19.605Z,0
2017-11-08T02:35:41.585Z,0
2017-11-08T02:37:04.086Z,0
2017-11-08T02:38:25.946Z,0
2017-11-08T02:39:48.451Z,0
2017-11-08T02:41:10.631Z,0
2017-11-08T02:42:32.539Z,0
2017-11-08T02:43:54.054Z,0
2017-11-08T02:45:15.566Z,0
2017-11-08T02:46:37.403Z,0
2017-11-08T02:47:58.900Z,0
2017-11-08T02:49:21.075Z,0
2017-11-08T02:50:42.914Z,0
2017-11-08T02:52:04.761Z,0
2017-11-08T02:53:26.924Z,0
2017-11-08T02:54:48.859Z,0
2017-11-08T02:56:10.659Z,0
2017-11-08T02:57:32.830Z,0
2017-11-08T02:58:54.365Z,0
2017-11-08T03:00:16.942Z,0
2017-11-08T03:01:38.820Z,0
2017-11-08T03:03:01.331Z,0
2017-11-08T03:04:23.603Z,0
2017-11-08T03:05:45.507Z,0
2017-11-08T03:07:07.459Z,0
2017-11-08T03:08:29.635Z,0
2017-11-08T03:09:52.233Z,0
2017-11-08T03:11:14.401Z,0
2017-11-08T03:12:36.615Z,0
2017-11-08T03:13:58.474Z,0
2017-11-08T03:15:19.997Z,0
2017-11-08T03:16:42.503Z,0
2017-11-08T03:18:05.014Z,0
2017-11-08T03:19:26.853Z,0
2017-11-08T03:20:49.323Z,0
2017-11-08T03:22:10.874Z,0
2017-11-08T03:23:32.686Z,0
2017-11-08T03:24:54.955Z,0
2017-11-08T03:26:16.844Z,0
2017-11-08T03:27:38.702Z,0
2017-11-08T03:29:00.962Z,0
2017-11-08T03:30:23.465Z,0
2017-11-08T03:31:45.368Z,0
2017-11-08T03:33:07.534Z,0
2017-11-08T03:34:29.372Z,0
2017-11-08T03:35:51.329Z,0
2017-11-08T03:37:12.814Z,0
2017-11-08T03:38:34.987Z,0
2017-11-08T03:39:56.876Z,0
2017-11-08T03:41:19.037Z,0
2017-11-08T03:42:41.013Z,0
2017-11-08T03:44:02.868Z,0
2017-11-08T03:45:25.645Z,0
2017-11-08T03:46:47.532Z,0
2017-11-08T03:48:09.364Z,0
2017-11-08T03:49:31.204Z,0
2017-11-08T03:50:53.464Z,0
2017-11-08T03:52:15.310Z,0
2017-11-08T03:53:37.230Z,0
2017-11-08T03:54:59.065Z,0
2017-11-08T03:56:21.571Z,0
2017-11-08T03:57:43.407Z,0
2017-11-08T03:59:05.337Z,0
2017-11-08T04:00:27.180Z,0
2017-11-08T04:01:49.355Z,0
2017-11-08T04:03:11.545Z,0
2017-11-08T04:04:33.379Z,0
2017-11-08T04:05:55.215Z,0
2017-11-08T04:07:17.387Z,0
2017-11-08T04:08:38.955Z,0
2017-11-08T04:10:00.829Z,0
2017-11-08T04:11:22.675Z,0
2017-11-08T04:12:44.187Z,0
2017-11-08T04:14:05.800Z,0
2017-11-08T04:15:27.649Z,0
2017-11-08T04:16:49.824Z,0
2017-11-08T04:18:12.013Z,0
2017-11-08T04:19:33.855Z,0
2017-11-08T04:20:56.038Z,0
2017-11-08T04:22:17.225Z,0
2017-11-08T04:23:39.376Z,0
2017-11-08T04:25:01.587Z,0
2017-11-08T04:26:24.085Z,0
2017-11-08T04:27:45.616Z,0
2017-11-08T04:29:07.775Z,0
2017-11-08T04:30:29.285Z,0
2017-11-08T04:31:51.134Z,0
2017-11-08T04:33:12.993Z,0
2017-11-08T04:34:35.176Z,0
2017-11-08T04:35:57.665Z,0
2017-11-08T04:37:19.295Z,0
2017-11-08T04:38:41.568Z,0
2017-11-08T04:40:04.068Z,0
2017-11-08T04:41:26.594Z,0
2017-11-08T04:42:48.436Z,0
2017-11-08T04:44:09.612Z,0
2017-11-08T04:45:32.043Z,0
2017-11-08T04:46:53.548Z,0
2017-11-08T04:48:15.406Z,0
2017-11-08T04:49:37.250Z,0
2017-11-08T04:50:59.415Z,0
2017-11-08T04:52:21.594Z,0
2017-11-08T04:53:43.095Z,0
2017-11-08T04:55:04.592Z,0
2017-11-08T04:56:27.401Z,0
2017-11-08T04:57:49.283Z,0
2017-11-08T04:59:11.548Z,0
2017-11-08T05:00:33.375Z,0
2017-11-08T05:01:55.894Z,0
2017-11-08T05:03:18.425Z,0
2017-11-08T05:04:39.932Z,0
2017-11-08T05:06:01.426Z,0
2017-11-08T05:07:23.588Z,0
2017-11-08T05:08:45.427Z,0
2017-11-08T05:10:07.279Z,0
2017-11-08T05:11:29.455Z,0
2017-11-08T05:12:50.625Z,0
2017-11-08T05:14:13.136Z,0
2017-11-08T05:15:35.352Z,0
2017-11-08T05:16:56.856Z,0
2017-11-08T05:18:19.603Z,0
2017-11-08T05:19:41.111Z,0
2017-11-08T05:21:02.612Z,0
2017-11-08T05:22:25.129Z,0
2017-11-08T05:23:47.696Z,0
2017-11-08T05:25:09.541Z,0
2017-11-08T05:26:31.391Z,0
2017-11-08T05:27:53.234Z,0
2017-11-08T05:29:14.725Z,0
2017-11-08T05:30:36.388Z,0
2017-11-08T05:31:58.937Z,0
2017-11-08T05:33:21.115Z,0
2017-11-08T05:34:42.955Z,0
2017-11-08T05:36:05.458Z,0
2017-11-08T05:37:27.349Z,0
2017-11-08T05:38:48.858Z,0
2017-11-08T05:40:11.062Z,0
2017-11-08T05:41:33.577Z,0
2017-11-08T05:42:56.144Z,0
2017-11-08T05:44:17.993Z,0
2017-11-08T05:45:40.502Z,0
2017-11-08T05:47:02.681Z,0
2017-11-08T05:48:24.180Z,0
2017-11-08T05:49:46.755Z,0
2017-11-08T05:51:09.265Z,0
2017-11-08T05:52:31.431Z,0
2017-11-08T05:53:52.954Z,0
2017-11-08T05:55:14.797Z,0
2017-11-08T05:56:36.965Z,0
2017-11-08T05:57:59.236Z,0
2017-11-08T05:59:21.412Z,0
2017-11-08T06:00:43.037Z,0
2017-11-08T06:02:05.555Z,0
2017-11-08T06:03:27.396Z,0
2017-11-08T06:04:48.905Z,0
2017-11-08T06:06:10.748Z,0
2017-11-08T06:07:32.689Z,0
2017-11-08T06:08:54.185Z,0
2017-11-08T06:10:16.454Z,0
2017-11-08T06:11:38.029Z,0
2017-11-08T06:12:59.894Z,0
2017-11-08T06:14:21.745Z,0
2017-11-08T06:15:44.294Z,0
2017-11-08T06:17:05.811Z,0
2017-11-08T06:18:28.010Z,0
2017-11-08T06:19:50.206Z,0
2017-11-08T06:21:12.037Z,0
2017-11-08T06:22:34.266Z,0
2017-11-08T06:23:56.106Z,0
2017-11-08T06:25:17.943Z,0
2017-11-08T06:26:40.589Z,0
2017-11-08T06:28:02.750Z,0
2017-11-08T06:29:24.667Z,0
2017-11-08T06:30:46.858Z,0
2017-11-08T06:32:08.365Z,0
2017-11-08T06:33:30.948Z,0
2017-11-08T06:34:52.543Z,0
2017-11-08T06:36:14.395Z,0
2017-11-08T06:37:36.578Z,0
2017-11-08T06:38:58.433Z,5
2017-11-08T06:40:20.667Z,0
2017-11-08T06:41:43.179Z,0
2017-11-08T06:43:05.022Z,5
2017-11-08T06:44:27.531Z,5
2017-11-08T06:45:49.463Z,5
2017-11-08T06:47:11.646Z,5
2017-11-08T06:48:33.478Z,5
2017-11-08T06:49:55.435Z,5
2017-11-08T06:51:17.879Z,5
2017-11-08T06:52:39.655Z,10
2017-11-08T06:54:01.938Z,10
2017-11-08T06:55:23.793Z,10
2017-11-08T06:56:46.306Z,10
2017-11-08T06:58:08.516Z,10
2017-11-08T06:59:31.044Z,10
2017-11-08T07:00:52.885Z,15
2017-11-08T07:02:15.333Z,15
2017-11-08T07:03:37.511Z,15
2017-11-08T07:04:59.680Z,15
2017-11-08T07:06:21.575Z,20
2017-11-08T07:07:44.143Z,20
2017-11-08T07:09:06.346Z,20
2017-11-08T07:10:28.518Z,20
2017-11-08T07:11:50.720Z,20
2017-11-08T07:13:12.607Z,20
2017-11-08T07:14:34.498Z,20
2017-11-08T07:15:56.000Z,20
2017-11-08T07:17:17.515Z,20
2017-11-08T07:18:40.264Z,20
2017-11-08T07:20:02.844Z,25
2017-11-08T07:21:25.162Z,25
2017-11-08T07:22:46.663Z,25
2017-11-08T07:24:08.160Z,30
2017-11-08T07:25:30.354Z,30
2017-11-08T07:26:51.875Z,30
2017-11-08T07:28:13.765Z,30
2017-11-08T07:29:35.999Z,30
2017-11-08T07:30:58.169Z,35
2017-11-08T07:32:20.023Z,40
2017-11-08T07:33:41.854Z,40
2017-11-08T07:35:03.705Z,40
2017-11-08T07:36:26.256Z,40
2017-11-08T07:37:48.505Z,40
2017-11-08T07:39:11.061Z,45
2017-11-08T07:40:32.619Z,50
2017-11-08T07:41:54.812Z,50
2017-11-08T07:43:17.332Z,55
2017-11-08T07:44:39.514Z,55
2017-11-08T07:46:02.013Z,50
2017-11-08T07:47:23.191Z,50
2017-11-08T07:48:44.380Z,50
2017-11-08T07:50:06.605Z,50
2017-11-08T07:51:28.309Z,50
2017-11-08T07:52:50.154Z,55
2017-11-08T07:54:12.038Z,55
2017-11-08T07:55:34.632Z,60
2017-11-08T07:56:56.824Z,60
2017-11-08T07:58:19.165Z,65
2017-11-08T07:59:41.369Z,65
2017-11-08T08:01:03.514Z,65
2017-11-08T08:02:26.064Z,75
2017-11-08T08:03:48.413Z,75
2017-11-08T08:05:10.664Z,75
2017-11-08T08:06:32.856Z,75
2017-11-08T08:07:55.049Z,75
2017-11-08T08:09:16.563Z,65
2017-11-08T08:10:38.085Z,60
2017-11-08T08:11:59.935Z,65
2017-11-08T08:13:22.549Z,75
2017-11-08T08:14:44.722Z,80
2017-11-08T08:16:05.903Z,80
2017-11-08T08:17:27.422Z,75
2017-11-08T08:18:49.847Z,65
2017-11-08T08:20:12.086Z,60
2017-11-08T08:21:34.288Z,60
2017-11-08T08:22:56.178Z,60
2017-11-08T08:24:18.583Z,60
2017-11-08T08:25:40.757Z,55
2017-11-08T08:27:02.627Z,60
2017-11-08T08:28:24.835Z,60
2017-11-08T08:29:47.370Z,75
2017-11-08T08:31:09.212Z,75
2017-11-08T08:32:31.065Z,70
2017-11-08T08:33:52.988Z,65
2017-11-08T08:35:15.204Z,55
2017-11-08T08:36:36.754Z,55
2017-11-08T08:37:58.264Z,55
2017-11-08T08:39:20.785Z,50
2017-11-08T08:40:43.319Z,60
2017-11-08T08:42:04.825Z,70
2017-11-08T08:43:26.381Z,100
2017-11-08T08:44:47.913Z,95
2017-11-08T08:46:09.764Z,90
2017-11-08T08:47:31.601Z,85
2017-11-08T08:48:53.774Z,85
2017-11-08T08:50:15.969Z,90
2017-11-08T08:51:37.876Z,85
2017-11-08T08:52:59.724Z,85
2017-11-08T08:54:21.904Z,75
2017-11-08T08:55:43.749Z,75
2017-11-08T08:57:05.633Z,70
2017-11-08T08:58:27.146Z,60
2017-11-08T08:59:48.978Z,55
2017-11-08T09:01:11.154Z,55
2017-11-08T09:02:33.077Z,60
2017-11-08T09:03:54.936Z,50
2017-11-08T09:05:16.123Z,50
2017-11-08T09:06:38.030Z,55
2017-11-08T09:08:00.540Z,60
2017-11-08T09:09:21.738Z,65
2017-11-08T09:10:43.597Z,60
2017-11-08T09:12:05.834Z,75
2017-11-08T09:13:28.011Z,85
2017-11-08T09:14:49.517Z,85
2017-11-08T09:16:12.013Z,95
2017-11-08T09:17:33.913Z,95
2017-11-08T09:18:56.125Z,100
2017-11-08T09:20:17.634Z,95
2017-11-08T09:21:39.823Z,95
2017-11-08T09:23:02.371Z,95
2017-11-08T09:24:24.576Z,95
2017-11-08T09:25:46.479Z,90
2017-11-08T09:27:09.059Z,90
2017-11-08T09:28:30.893Z,80
2017-11-08T09:29:53.264Z,85
2017-11-08T09:31:15.154Z,75
2017-11-08T09:32:37.362Z,70
2017-11-08T09:33:59.971Z,80
2017-11-08T09:35:22.488Z,90
2017-11-08T09:36:44.759Z,100
2017-11-08T09:38:07.305Z,105
2017-11-08T09:39:29.197Z,110
2017-11-08T09:40:51.074Z,115
2017-11-08T09:42:13.266Z,110
2017-11-08T09:43:35.547Z,125
2017-11-08T09:44:57.714Z,140
2017-11-08T09:46:19.944Z,135
2017-11-08T09:47:41.799Z,130
2017-11-08T09:49:02.975Z,140
2017-11-08T09:50:25.151Z,155
2017-11-08T09:51:47.960Z,155
2017-11-08T09:53:09.820Z,145
2017-11-08T09:54:31.664Z,140
2017-11-08T09:55:53.835Z,150
2017-11-08T09:57:16.654Z,150
2017-11-08T09:58:38.488Z,150
2017-11-08T10:00:00.745Z,150
2017-11-08T10:01:22.926Z,155
2017-11-08T10:02:45.783Z,155
2017-11-08T10:04:07.345Z,150
2017-11-08T10:05:29.525Z,150
2017-11-08T10:06:52.077Z,155
2017-11-08T10:08:14.114Z,165
2017-11-08T10:09:36.425Z,170
2017-11-08T10:10:59.030Z,175
2017-11-08T10:12:21.284Z,185
2017-11-08T10:13:43.559Z,190
2017-11-08T10:15:06.164Z,190
2017-11-08T10:16:28.054Z,190
2017-11-08T10:17:50.660Z,180
2017-11-08T10:19:12.894Z,160
2017-11-08T10:20:35.097Z,165
2017-11-08T10:21:56.947Z,175
2017-11-08T10:23:19.488Z,155
2017-11-08T10:24:41.775Z,135
2017-11-08T10:26:04.084Z,145
2017-11-08T10:27:25.928Z,175
2017-11-08T10:28:48.454Z,170
2017-11-08T10:30:11.044Z,160
2017-11-08T10:31:33.227Z,165
2017-11-08T10:32:55.865Z,160
2017-11-08T10:34:18.375Z,135
2017-11-08T10:35:40.546Z,145
2017-11-08T10:37:02.748Z,155
2017-11-08T10:38:24.608Z,155
2017-11-08T10:39:47.190Z,155
2017-11-08T10:41:09.483Z,140
2017-11-08T10:42:31.914Z,120
2017-11-08T10:43:53.877Z,110
2017-11-08T10:45:16.135Z,110
2017-11-08T10:46:38.670Z,105
2017-11-08T10:48:00.556Z,95
2017-11-08T10:49:23.207Z,95
2017-11-08T10:50:45.528Z,90
2017-11-08T10:52:07.409Z,90
2017-11-08T10:53:29.267Z,110
2017-11-08T10:54:51.788Z,125
2017-11-08T10:56:14.012Z,135
2017-11-08T10:57:36.008Z,130
2017-11-08T10:58:57.877Z,130
2017-11-08T11:00:20.392Z,165
2017-11-08T11:01:42.599Z,165
2017-11-08T11:03:05.047Z,150
2017-11-08T11:04:27.248Z,145
2017-11-08T11:05:49.855Z,145
2017-11-08T11:07:12.390Z,160
2017-11-08T11:08:33.921Z,160
2017-11-08T11:09:56.128Z,165
2017-11-08T11:11:18.434Z,155
2017-11-08T11:12:40.660Z,150
2017-11-08T11:14:02.871Z,150
2017-11-08T11:15:24.738Z,135
2017-11-08T11:16:47.317Z,130
2017-11-08T11:18:09.862Z,140
2017-11-08T11:19:31.760Z,140
2017-11-08T11:20:53.955Z,150
2017-11-08T11:22:15.563Z,150
2017-11-08T11:23:37.411Z,145
2017-11-08T11:24:58.249Z,150
2017-11-08T11:26:20.174Z,150
2017-11-08T11:27:42.728Z,160
2017-11-08T11:29:04.954Z,165
2017-11-08T11:30:27.136Z,175
2017-11-08T11:31:48.985Z,180
2017-11-08T11:33:11.185Z,185
2017-11-08T11:34:33.017Z,200
2017-11-08T11:35:55.207Z,215
2017-11-08T11:37:17.073Z,225
2017-11-08T11:38:38.268Z,220
2017-11-08T11:40:00.808Z,215
2017-11-08T11:41:23.060Z,220
2017-11-08T11:42:44.941Z,210
2017-11-08T11:44:07.201Z,200
2017-11-08T11:45:28.718Z,190
2017-11-08T11:46:50.917Z,190
2017-11-08T11:48:12.767Z,200
2017-11-08T11:49:34.347Z,185
2017-11-08T11:50:56.031Z,150
2017-11-08T11:52:17.901Z,125
2017-11-08T11:53:39.760Z,145
2017-11-08T11:55:01.613Z,195
2017-11-08T11:56:23.807Z,190
2017-11-08T11:57:46.000Z,180
2017-11-08T11:59:08.224Z,175
2017-11-08T12:00:30.808Z,205
2017-11-08T12:01:52.671Z,190
2017-11-08T12:03:14.934Z,155
2017-11-08T12:04:36.812Z,155
2017-11-08T12:05:59.016Z,150
2017-11-08T12:07:20.875Z,140
2017-11-08T12:08:42.731Z,135
2017-11-08T12:10:04.580Z,125
2017-11-08T12:11:26.448Z,125
2017-11-08T12:12:48.638Z,120
2017-11-08T12:14:09.827Z,125
2017-11-08T12:15:32.110Z,125
2017-11-08T12:16:53.962Z,130
2017-11-08T12:18:15.841Z,130
2017-11-08T12:19:37.690Z,125
2017-11-08T12:20:59.618Z,140
2017-11-08T12:22:21.468Z,140
2017-11-08T12:23:42.969Z,125
2017-11-08T12:25:04.548Z,115
2017-11-08T12:26:26.747Z,105
2017-11-08T12:27:48.697Z,95
2017-11-08T12:29:10.552Z,65
2017-11-08T12:30:33.259Z,65
2017-11-08T12:31:55.180Z,60
2017-11-08T12:33:17.720Z,50
2017-11-08T12:34:39.730Z,40
2017-11-08T12:36:01.957Z,35
2017-11-08T12:37:24.220Z,35
2017-11-08T12:38:45.781Z,35
2017-11-08T12:40:07.666Z,35
2017-11-08T12:41:30.037Z,40
2017-11-08T12:42:51.915Z,35
2017-11-08T12:44:13.460Z,30
2017-11-08T12:45:35.760Z,35
2017-11-08T12:46:58.118Z,35
2017-11-08T12:48:20.300Z,35
2017-11-08T12:49:42.151Z,35
2017-11-08T12:51:04.338Z,40
2017-11-08T12:52:25.625Z,40
2017-11-08T12:53:47.146Z,45
2017-11-08T12:55:09.663Z,45
2017-11-08T12:56:31.185Z,45
2017-11-08T12:57:53.044Z,45
2017-11-08T12:59:15.586Z,40
2017-11-08T13:00:38.121Z,40
2017-11-08T13:02:00.098Z,35
2017-11-08T13:03:21.993Z,35
2017-11-08T13:04:44.495Z,40
2017-11-08T13:06:06.693Z,45
2017-11-08T13:07:28.596Z,50
2017-11-08T13:08:50.789Z,50
2017-11-08T13:10:12.719Z,50
2017-11-08T13:11:35.327Z,50
2017-11-08T13:12:57.553Z,50
2017-11-08T13:14:19.752Z,45
2017-11-08T13:15:41.991Z,45
2017-11-08T13:17:03.967Z,45
2017-11-08T13:18:25.823Z,40
2017-11-08T13:19:48.037Z,40
2017-11-08T13:21:10.581Z,40
2017-11-08T13:22:32.429Z,40
2017-11-08T13:23:54.748Z,40
2017-11-08T13:25:17.106Z,35
2017-11-08T13:26:39.012Z,35
2017-11-08T13:28:01.226Z,35
2017-11-08T13:29:23.748Z,35
2017-11-08T13:30:46.231Z,35
2017-11-08T13:32:07.419Z,40
2017-11-08T13:33:29.311Z,40
2017-11-08T13:34:51.553Z,35
2017-11-08T13:36:13.373Z,40
2017-11-08T13:37:35.304Z,40
2017-11-08T13:38:57.472Z,40
2017-11-08T13:40:18.993Z,35
2017-11-08T13:41:40.517Z,35
2017-11-08T13:43:02.389Z,40
2017-11-08T13:44:24.599Z,40
2017-11-08T13:45:46.446Z,40
2017-11-08T13:47:08.632Z,35
2017-11-08T13:48:30.823Z,35
2017-11-08T13:49:53.031Z,30
2017-11-08T13:51:15.331Z,30
2017-11-08T13:52:37.523Z,30
2017-11-08T13:53:59.700Z,30
2017-11-08T13:55:22.047Z,35
2017-11-08T13:56:43.963Z,35
2017-11-08T13:58:06.421Z,25
2017-11-08T13:59:28.612Z,25
2017-11-08T14:00:50.525Z,25
2017-11-08T14:02:12.031Z,30
2017-11-08T14:03:33.876Z,30
2017-11-08T14:04:55.721Z,30
2017-11-08T14:06:17.894Z,30
2017-11-08T14:07:40.124Z,40
2017-11-08T14:09:02.339Z,45
2017-11-08T14:10:24.561Z,55
2017-11-08T14:11:46.767Z,55
2017-11-08T14:13:09.307Z,55
2017-11-08T14:14:31.292Z,50
2017-11-08T14:15:53.498Z,50
2017-11-08T14:17:15.024Z,45
2017-11-08T14:18:36.912Z,45
2017-11-08T14:19:58.461Z,50
2017-11-08T14:21:20.684Z,50
2017-11-08T14:22:42.226Z,45
2017-11-08T14:24:03.814Z,45
2017-11-08T14:25:25.700Z,40
2017-11-08T14:26:47.560Z,35
2017-11-08T14:28:10.078Z,35
2017-11-08T14:29:32.264Z,35
2017-11-08T14:30:54.794Z,35
2017-11-08T14:32:17.332Z,30
2017-11-08T14:33:38.828Z,30
2017-11-08T14:35:00.695Z,35
2017-11-08T14:36:23.234Z,30
2017-11-08T14:37:45.317Z,35
2017-11-08T14:39:07.174Z,30
2017-11-08T14:40:28.364Z,30
2017-11-08T14:41:50.288Z,30
2017-11-08T14:43:12.153Z,35
2017-11-08T14:44:34.024Z,40
2017-11-08T14:45:56.195Z,40
2017-11-08T14:47:18.865Z,40
2017-11-08T14:48:41.199Z,40
2017-11-08T14:50:02.395Z,40
2017-11-08T14:51:23.975Z,40
2017-11-08T14:52:45.825Z,35
2017-11-08T14:54:08.076Z,35
2017-11-08T14:55:30.318Z,30
2017-11-08T14:56:52.541Z,25
2017-11-08T14:58:14.755Z,20
2017-11-08T14:59:36.665Z,20
2017-11-08T15:00:57.847Z,15
2017-11-08T15:02:20.093Z,15
2017-11-08T15:03:42.289Z,15
2017-11-08T15:05:03.936Z,15
2017-11-08T15:06:26.473Z,15
2017-11-08T15:07:48.353Z,15
2017-11-08T15:09:10.896Z,10
2017-11-08T15:10:33.103Z,10
2017-11-08T15:11:54.994Z,10
2017-11-08T15:13:16.864Z,10
2017-11-08T15:14:38.387Z,10
2017-11-08T15:15:59.946Z,5
2017-11-08T15:17:21.492Z,5
2017-11-08T15:18:43.729Z,5
2017-11-08T15:20:06.421Z,5
2017-11-08T15:21:28.630Z,5
2017-11-08T15:22:50.856Z,5
2017-11-08T15:24:13.462Z,0
2017-11-08T15:25:36.087Z,0
2017-11-08T15:26:58.305Z,0
2017-11-08T15:28:20.837Z,0
2017-11-08T15:29:42.369Z,0
2017-11-08T15:31:03.917Z,0
2017-11-08T15:32:25.829Z,0
2017-11-08T15:33:48.065Z,0
2017-11-08T15:35:10.320Z,0
2017-11-08T15:36:31.831Z,0
2017-11-08T15:37:54.079Z,0
2017-11-08T15:39:16.330Z,0
2017-11-08T15:40:38.209Z,0
2017-11-08T15:42:00.457Z,0
2017-11-08T15:43:22.671Z,0
2017-11-08T15:44:44.555Z,0
2017-11-08T15:46:06.846Z,0
2017-11-08T15:47:29.069Z,0
2017-11-08T15:48:51.300Z,0
2017-11-08T15:50:12.820Z,0
2017-11-08T15:51:34.711Z,0
2017-11-08T15:52:57.245Z,0
2017-11-08T15:54:18.153Z,0
2017-11-08T15:55:40.418Z,0
2017-11-08T15:57:02.640Z,0
2017-11-08T15:58:24.849Z,0
2017-11-08T15:59:46.860Z,0
2017-11-08T16:01:08.732Z,0
2017-11-08T16:02:31.356Z,0
2017-11-08T16:03:53.567Z,0
2017-11-08T16:05:15.458Z,0
2017-11-08T16:06:37.643Z,0
2017-11-08T16:07:59.859Z,0
2017-11-08T16:09:22.411Z,0
2017-11-08T16:10:44.620Z,0
2017-11-08T16:12:06.252Z,0
2017-11-08T16:13:27.801Z,0
2017-11-08T16:14:49.960Z,0
2017-11-08T16:16:12.545Z,0
2017-11-08T16:17:34.465Z,0
2017-11-08T16:18:56.690Z,0
2017-11-08T16:20:18.650Z,0
2017-11-08T16:21:40.868Z,0
2017-11-08T16:23:02.416Z,0
2017-11-08T16:24:23.970Z,0
2017-11-08T16:25:46.192Z,0
2017-11-08T16:27:08.880Z,0
2017-11-08T16:28:31.078Z,0
2017-11-08T16:29:53.302Z,0
2017-11-08T16:31:15.560Z,0
2017-11-08T16:32:37.435Z,0
2017-11-08T16:33:59.647Z,0
2017-11-08T16:35:21.516Z,0
2017-11-08T16:36:44.079Z,0
2017-11-08T16:38:06.287Z,0
2017-11-08T16:39:28.194Z,0
2017-11-08T16:40:49.765Z,0
2017-11-08T16:42:12.406Z,0
2017-11-08T16:43:34.638Z,0
2017-11-08T16:44:56.514Z,0
2017-11-08T16:46:18.383Z,0
2017-11-08T16:47:40.617Z,0
2017-11-08T16:49:02.469Z,0
2017-11-08T16:50:24.736Z,0
2017-11-08T16:51:46.972Z,0
2017-11-08T16:53:09.545Z,0
2017-11-08T16:54:31.067Z,0
2017-11-08T16:55:53.259Z,0
2017-11-08T16:57:15.891Z,0
2017-11-08T16:58:37.404Z,0
2017-11-08T16:59:59.611Z,0
2017-11-08T17:01:21.828Z,0
2017-11-08T17:02:44.047Z,0
2017-11-08T17:04:05.902Z,0
2017-11-08T17:05:28.420Z,0
2017-11-08T17:06:50.367Z,0
2017-11-08T17:08:12.251Z,0
2017-11-08T17:09:34.161Z,0
2017-11-08T17:10:56.700Z,0
2017-11-08T17:12:18.921Z,0
2017-11-08T17:13:40.858Z,0
2017-11-08T17:15:02.729Z,0
2017-11-08T17:16:24.934Z,0
2017-11-08T17:17:47.570Z,0
2017-11-08T17:19:10.300Z,0
2017-11-08T17:20:32.526Z,0
2017-11-08T17:21:54.775Z,0
2017-11-08T17:23:17.007Z,0
2017-11-08T17:24:39.219Z,0
2017-11-08T17:26:01.779Z,0
2017-11-08T17:27:24.008Z,0
2017-11-08T17:28:46.578Z,0
2017-11-08T17:30:08.790Z,0
2017-11-08T17:31:30.997Z,0
2017-11-08T17:32:52.554Z,0
2017-11-08T17:34:14.130Z,0
2017-11-08T17:35:36.364Z,0
2017-11-08T17:36:58.594Z,0
2017-11-08T17:38:21.415Z,0
2017-11-08T17:39:43.618Z,0
2017-11-08T17:41:05.559Z,0
2017-11-08T17:42:28.145Z,0
2017-11-08T17:43:50.063Z,0
2017-11-08T17:45:11.928Z,0
2017-11-08T17:46:34.611Z,0
2017-11-08T17:47:56.992Z,0
2017-11-08T17:49:18.863Z,0
2017-11-08T17:50:41.071Z,0
2017-11-08T17:52:02.627Z,0
2017-11-08T17:53:25.422Z,0
2017-11-08T17:54:47.867Z,0
2017-11-08T17:56:10.055Z,0
2017-11-08T17:57:32.383Z,0
2017-11-08T17:58:54.929Z,0
2017-11-08T18:00:16.806Z,0
2017-11-08T18:01:39.333Z,0
2017-11-08T18:03:01.530Z,0
2017-11-08T18:04:23.408Z,0
2017-11-08T18:05:45.639Z,0
2017-11-08T18:07:07.513Z,0
2017-11-08T18:08:30.175Z,0
2017-11-08T18:09:51.829Z,0
2017-11-08T18:11:14.369Z,0
2017-11-08T18:12:36.231Z,0
2017-11-08T18:13:57.833Z,0
2017-11-08T18:15:19.719Z,0
2017-11-08T18:16:41.681Z,0
2017-11-08T18:18:03.544Z,0
2017-11-08T18:19:25.459Z,0
2017-11-08T18:20:47.711Z,0
2017-11-08T18:22:10.306Z,0
2017-11-08T18:23:32.543Z,0
2017-11-08T18:24:55.076Z,0
2017-11-08T18:26:16.954Z,0
2017-11-08T18:27:39.515Z,0
2017-11-08T18:29:02.629Z,0
2017-11-08T18:30:24.533Z,0
2017-11-08T18:31:47.136Z,0
2017-11-08T18:33:09.340Z,0
2017-11-08T18:34:30.895Z,0
2017-11-08T18:35:52.768Z,0
2017-11-08T18:37:14.629Z,0
2017-11-08T18:38:36.519Z,0
2017-11-08T18:39:58.400Z,0
2017-11-08T18:41:20.703Z,0
2017-11-08T18:42:42.896Z,0
2017-11-08T18:44:04.786Z,0
2017-11-08T18:45:27.388Z,0
2017-11-08T18:46:49.587Z,0
2017-11-08T18:48:12.124Z,0
2017-11-08T18:49:34.353Z,0
2017-11-08T18:50:56.225Z,0
2017-11-08T18:52:18.762Z,0
2017-11-08T18:53:40.665Z,0
2017-11-08T18:55:02.547Z,0
2017-11-08T18:56:24.855Z,0
2017-11-08T18:57:46.396Z,0
2017-11-08T18:59:08.608Z,0
2017-11-08T19:00:30.525Z,0
2017-11-08T19:01:53.071Z,0
2017-11-08T19:03:15.298Z,0
2017-11-08T19:04:37.506Z,0
2017-11-08T19:05:59.706Z,0
2017-11-08T19:07:22.268Z,0
2017-11-08T19:08:44.886Z,0
2017-11-08T19:10:06.816Z,0
2017-11-08T19:11:28.346Z,0
2017-11-08T19:12:50.604Z,0
2017-11-08T19:14:12.891Z,0
2017-11-08T19:15:34.931Z,0
2017-11-08T19:16:56.606Z,0
2017-11-08T19:18:18.837Z,0
2017-11-08T19:19:41.080Z,0
2017-11-08T19:21:02.821Z,0
2017-11-08T19:22:25.427Z,0
2017-11-08T19:23:47.675Z,0
2017-11-08T19:25:09.235Z,0
2017-11-08T19:26:31.249Z,0
2017-11-08T19:27:53.825Z,0
2017-11-08T19:29:16.400Z,0
2017-11-08T19:30:39.157Z,0
2017-11-08T19:32:01.049Z,0
2017-11-08T19:33:23.698Z,0
2017-11-08T19:34:45.633Z,0
2017-11-08T19:36:08.200Z,0
2017-11-08T19:37:29.774Z,0
2017-11-08T19:38:52.034Z,0
2017-11-08T19:40:14.284Z,0
2017-11-08T19:41:36.866Z,0
2017-11-08T19:42:59.594Z,0
2017-11-08T19:44:22.215Z,0
2017-11-08T19:45:44.120Z,0
2017-11-08T19:47:06.338Z,0
2017-11-08T19:48:28.236Z,0
2017-11-08T19:49:50.813Z,0